createdAt,value
2023-04-19T00:00:54.041Z,60.83
2023-04-19T00:03:26.332Z,60.84
2023-04-19T00:05:59.540Z,60.66
2023-04-19T00:08:29.454Z,60.74
2023-04-19T00:10:58.825Z,60.37
2023-04-19T00:13:28.131Z,60.40
2023-04-19T00:15:57.628Z,60.36
2023-04-19T00:18:27.787Z,60.91
2023-04-19T00:20:56.940Z,61.46
2023-04-19T00:23:27.518Z,61.53
2023-04-19T00:25:57.690Z,61.34
2023-04-19T00:28:27.077Z,61.28
2023-04-19T00:30:57.343Z,61.92
2023-04-19T00:33:28.304Z,62.15
2023-04-19T00:36:00.126Z,62.66
2023-04-19T00:38:30.142Z,63.69
2023-04-19T00:41:00.824Z,63.38
2023-04-19T00:43:30.413Z,63.37
2023-04-19T00:46:01.069Z,64.37
2023-04-19T00:48:31.335Z,64.35
2023-04-19T00:51:02.381Z,63.35
2023-04-19T00:53:32.679Z,64.06
2023-04-19T00:56:05.260Z,63.29
2023-04-19T00:58:37.574Z,64.39
2023-04-19T01:01:07.106Z,63.97
2023-04-19T01:03:37.016Z,64.65
2023-04-19T01:06:08.124Z,64.76
2023-04-19T01:08:38.105Z,64.22
2023-04-19T01:11:10.757Z,64.25
2023-04-19T01:13:39.817Z,64.52
2023-04-19T01:16:12.773Z,63.65
2023-04-19T01:18:42.036Z,63.42
2023-04-19T01:21:13.023Z,64.94
2023-04-19T01:23:43.593Z,64.34
2023-04-19T01:26:13.844Z,64.68
2023-04-19T01:28:44.554Z,65.10
2023-04-19T01:31:13.603Z,64.07
2023-04-19T01:33:44.569Z,63.95
2023-04-19T01:36:13.725Z,64.32
2023-04-19T01:38:44.164Z,64.25
2023-04-19T01:41:13.128Z,64.91
2023-04-19T01:43:42.706Z,65.88
2023-04-19T01:46:12.726Z,65.61
2023-04-19T01:48:42.156Z,66.02
2023-04-19T01:51:11.605Z,66.33
2023-04-19T01:53:40.849Z,66.39
2023-04-19T01:56:10.334Z,67.00
2023-04-19T01:58:39.715Z,66.93
2023-04-19T02:01:13.006Z,66.40
2023-04-19T02:03:42.588Z,66.28
2023-04-19T02:06:13.036Z,66.62
2023-04-19T02:08:44.297Z,66.51
2023-04-19T02:11:18.445Z,66.41
2023-04-19T02:13:47.907Z,67.91
2023-04-19T02:16:16.891Z,67.21
2023-04-19T02:18:47.045Z,67.66
2023-04-19T02:21:17.671Z,67.15
2023-04-19T02:23:47.097Z,67.21
2023-04-19T02:26:16.072Z,66.88
2023-04-19T02:28:45.953Z,66.32
2023-04-19T02:31:16.185Z,66.02
2023-04-19T02:33:48.494Z,66.73
2023-04-19T02:36:17.968Z,66.12
2023-04-19T02:38:48.078Z,67.46
2023-04-19T02:41:17.096Z,67.14
2023-04-19T02:43:47.088Z,66.44
2023-04-19T02:46:16.821Z,67.13
2023-04-19T02:48:46.648Z,66.85
2023-04-19T02:51:17.809Z,67.16
2023-04-19T02:53:47.144Z,67.11
2023-04-19T02:56:17.099Z,67.33
2023-04-19T02:58:47.825Z,67.70
2023-04-19T03:01:18.332Z,67.88
2023-04-19T03:03:48.706Z,68.20
2023-04-19T03:06:18.040Z,68.92
2023-04-19T03:08:47.595Z,68.71
2023-04-19T03:11:18.771Z,68.50
2023-04-19T03:13:50.407Z,68.71
2023-04-19T03:16:19.615Z,68.68
2023-04-19T03:18:49.708Z,68.42
2023-04-19T03:21:21.557Z,68.87
2023-04-19T03:23:56.406Z,68.27
2023-04-19T03:26:26.867Z,68.11
2023-04-19T03:28:59.236Z,68.53
2023-04-19T03:31:43.176Z,68.17
2023-04-19T03:34:15.171Z,67.62
2023-04-19T03:36:47.233Z,67.36
2023-04-19T03:39:16.621Z,67.28
2023-04-19T03:41:48.213Z,67.25
2023-04-19T03:44:31.652Z,67.14
2023-04-19T03:47:00.710Z,66.79
2023-04-19T03:49:31.810Z,66.98
2023-04-19T03:52:06.202Z,67.22
2023-04-19T03:54:36.236Z,67.43
2023-04-19T03:57:07.828Z,68.08
2023-04-19T03:59:40.508Z,68.36
2023-04-19T04:02:11.533Z,68.35
2023-04-19T04:04:41.154Z,68.51
2023-04-19T04:07:11.482Z,68.55
2023-04-19T04:09:41.035Z,68.47
2023-04-19T04:12:13.029Z,68.73
2023-04-19T04:14:42.546Z,68.72
2023-04-19T04:17:13.304Z,68.63
2023-04-19T04:19:43.587Z,68.51
2023-04-19T04:22:14.780Z,68.45
2023-04-19T04:24:44.783Z,68.11
2023-04-19T04:27:24.949Z,67.70
2023-04-19T04:29:57.364Z,67.79
2023-04-19T04:32:27.007Z,67.72
2023-04-19T04:35:03.993Z,68.07
2023-04-19T04:37:56.969Z,68.21
2023-04-19T04:40:29.561Z,69.07
2023-04-19T04:43:01.646Z,68.93
2023-04-19T04:45:32.449Z,69.01
2023-04-19T04:48:02.146Z,69.07
2023-04-19T04:50:31.963Z,68.30
2023-04-19T04:53:03.127Z,67.96
2023-04-19T04:55:36.953Z,68.30
2023-04-19T04:58:06.788Z,68.06
2023-04-19T05:00:49.576Z,67.67
2023-04-19T05:03:20.617Z,67.18
2023-04-19T05:05:56.860Z,67.76
2023-04-19T05:08:27.233Z,67.77
2023-04-19T05:11:00.219Z,67.48
2023-04-19T05:13:31.776Z,67.42
2023-04-19T05:16:01.735Z,66.94
2023-04-19T05:18:32.849Z,66.67
2023-04-19T05:21:02.889Z,66.57
2023-04-19T05:23:33.965Z,66.35
2023-04-19T05:26:02.899Z,65.89
2023-04-19T05:28:33.132Z,65.72
2023-04-19T05:31:11.108Z,66.02
2023-04-19T05:33:50.448Z,65.66
2023-04-19T05:36:20.329Z,65.33
2023-04-19T05:38:49.433Z,65.30
2023-04-19T05:41:19.379Z,65.21
2023-04-19T05:43:49.407Z,64.82
2023-04-19T05:46:20.599Z,64.79
2023-04-19T05:48:50.337Z,63.87
2023-04-19T05:51:43.126Z,63.38
2023-04-19T05:54:17.995Z,63.71
2023-04-19T05:56:49.236Z,63.42
2023-04-19T05:59:19.442Z,63.12
2023-04-19T06:01:49.411Z,63.60
2023-04-19T06:04:19.672Z,63.25
2023-04-19T06:06:49.915Z,63.03
2023-04-19T06:09:20.372Z,62.40
2023-04-19T06:11:52.080Z,62.05
2023-04-19T06:14:22.055Z,61.53
2023-04-19T06:16:52.144Z,61.40
2023-04-19T06:19:21.617Z,60.72
2023-04-19T06:21:52.281Z,59.67
2023-04-19T06:24:21.531Z,58.86
2023-04-19T06:26:52.662Z,59.16
2023-04-19T06:29:24.184Z,58.48
2023-04-19T06:31:54.249Z,57.84
2023-04-19T06:34:24.578Z,58.18
2023-04-19T06:36:55.064Z,58.01
2023-04-19T06:39:25.226Z,57.75
2023-04-19T06:41:55.062Z,56.92
2023-04-19T06:44:25.351Z,57.40
2023-04-19T06:46:55.086Z,56.94
2023-04-19T06:49:24.458Z,56.40
2023-04-19T06:51:54.757Z,56.00
2023-04-19T06:54:24.841Z,55.94
2023-04-19T06:56:58.569Z,55.50
2023-04-19T06:59:28.883Z,55.83
2023-04-19T07:01:59.080Z,55.67
2023-04-19T07:04:28.395Z,55.32
2023-04-19T07:06:58.281Z,54.85
2023-04-19T07:09:29.365Z,54.63
2023-04-19T07:11:59.083Z,53.99
2023-04-19T07:14:28.630Z,53.55
2023-04-19T07:16:58.352Z,53.17
2023-04-19T07:19:29.588Z,52.83
2023-04-19T07:21:59.837Z,52.72
2023-04-19T07:24:30.967Z,52.68
2023-04-19T07:27:02.187Z,52.51
2023-04-19T07:29:31.704Z,52.03
2023-04-19T07:32:02.406Z,51.68
2023-04-19T07:34:32.295Z,51.93
2023-04-19T07:37:02.451Z,51.06
2023-04-19T07:39:32.205Z,51.19
2023-04-19T07:42:02.394Z,51.82
2023-04-19T07:44:32.763Z,51.51
2023-04-19T07:47:01.807Z,51.73
2023-04-19T07:49:34.717Z,51.20
2023-04-19T07:52:03.858Z,49.90
2023-04-19T07:54:35.002Z,49.14
2023-04-19T07:57:05.004Z,49.74
2023-04-19T07:59:35.167Z,49.39
2023-04-19T08:02:05.031Z,48.71
2023-04-19T08:04:35.700Z,47.86
2023-04-19T08:07:05.892Z,47.32
2023-04-19T08:09:38.248Z,46.65
2023-04-19T08:12:10.109Z,47.69
2023-04-19T08:14:56.403Z,47.44
2023-04-19T08:17:36.727Z,47.10
2023-04-19T08:20:13.511Z,47.01
2023-04-19T08:22:42.571Z,45.98
2023-04-19T08:25:14.190Z,44.75
2023-04-19T08:27:43.426Z,45.49
2023-04-19T08:30:12.906Z,46.11
2023-04-19T08:32:43.657Z,45.86
2023-04-19T08:35:14.763Z,45.82
2023-04-19T08:37:44.214Z,45.33
2023-04-19T08:40:15.418Z,45.28
2023-04-19T08:42:46.459Z,43.70
2023-04-19T08:45:27.587Z,44.57
2023-04-19T08:48:02.145Z,44.62
2023-04-19T08:50:38.807Z,43.54
2023-04-19T08:53:24.716Z,43.10
2023-04-19T09:01:12.842Z,42.75
2023-04-19T09:04:02.399Z,42.77
2023-04-19T09:06:43.729Z,41.66
2023-04-19T09:12:01.024Z,42.91
2023-04-19T09:14:30.557Z,42.44
2023-04-19T09:17:17.001Z,43.02
2023-04-19T09:19:49.059Z,41.49
2023-04-19T09:22:19.137Z,41.94
2023-04-19T09:27:34.940Z,41.46
2023-04-19T09:30:07.303Z,41.27
2023-04-19T09:32:48.650Z,40.43
2023-04-19T09:35:18.226Z,40.22
2023-04-19T09:40:35.493Z,39.75
2023-04-19T09:43:23.129Z,38.79
2023-04-19T09:45:54.149Z,38.15
2023-04-19T09:48:23.847Z,37.88
2023-04-19T09:51:02.651Z,37.59
2023-04-19T09:53:36.026Z,37.07
2023-04-19T09:56:15.613Z,36.84
2023-04-19T09:58:51.057Z,36.12
2023-04-19T10:01:27.000Z,35.42
2023-04-19T10:04:01.354Z,35.19
2023-04-19T10:07:06.986Z,34.75
2023-04-19T10:09:40.040Z,33.99
2023-04-19T10:12:40.628Z,33.32
2023-04-19T10:15:11.856Z,34.44
2023-04-19T10:17:42.203Z,33.76
2023-04-19T10:20:24.582Z,34.09
2023-04-19T10:22:54.204Z,34.83
2023-04-19T10:25:30.445Z,34.29
2023-04-19T10:28:00.974Z,33.60
2023-04-19T10:30:30.157Z,33.62
2023-04-19T10:33:03.275Z,32.38
2023-04-19T10:35:38.125Z,31.93
2023-04-19T10:38:16.895Z,30.76
2023-04-19T10:40:57.820Z,31.32
2023-04-19T10:43:37.045Z,31.63
2023-04-19T10:46:10.955Z,31.26
2023-04-19T10:48:54.197Z,31.54
2023-04-19T10:51:28.289Z,31.21
2023-04-19T10:53:59.385Z,29.40
2023-04-19T10:56:38.401Z,29.51
2023-04-19T10:59:12.178Z,31.77
2023-04-19T11:01:45.987Z,31.83
2023-04-19T11:04:27.948Z,31.99
2023-04-19T11:07:06.279Z,30.94
2023-04-19T11:09:39.523Z,30.36
2023-04-19T11:12:14.870Z,30.43
2023-04-19T11:14:49.330Z,30.78
2023-04-19T11:17:32.417Z,31.10
2023-04-19T11:20:11.826Z,31.23
2023-04-19T11:22:47.618Z,31.18
2023-04-19T11:25:21.093Z,32.01
2023-04-19T11:27:53.560Z,32.38
2023-04-19T11:30:30.464Z,31.46
2023-04-19T11:32:59.912Z,30.84
2023-04-19T11:35:32.964Z,30.76
2023-04-19T11:38:07.737Z,31.05
2023-04-19T11:40:38.013Z,31.65
2023-04-19T11:43:06.993Z,31.90
2023-04-19T11:45:39.945Z,31.23
2023-04-19T11:48:16.804Z,31.72
2023-04-19T11:50:49.874Z,32.38
2023-04-19T11:53:23.917Z,32.14
2023-04-19T11:56:06.696Z,30.85
2023-04-19T11:58:45.197Z,31.74
2023-04-19T12:01:20.459Z,31.58
2023-04-19T12:03:57.135Z,29.80
2023-04-19T12:06:29.006Z,29.38
2023-04-19T12:08:59.866Z,28.55
2023-04-19T12:11:55.930Z,27.60
2023-04-19T12:14:31.864Z,28.11
2023-04-19T12:17:27.720Z,28.45
2023-04-19T12:19:56.706Z,28.69
2023-04-19T12:22:25.792Z,28.82
2023-04-19T12:24:56.436Z,28.71
2023-04-19T12:27:26.341Z,28.88
2023-04-19T12:29:55.957Z,29.46
2023-04-19T12:32:25.413Z,29.82
2023-04-19T12:34:57.888Z,30.29
2023-04-19T12:37:27.091Z,30.68
2023-04-19T12:39:56.987Z,31.22
2023-04-19T12:42:27.237Z,31.71
2023-04-19T12:44:57.150Z,32.09
2023-04-19T12:47:27.156Z,32.22
2023-04-19T12:49:58.225Z,32.17
2023-04-19T12:52:29.174Z,32.70
2023-04-19T12:54:58.691Z,32.83
2023-04-19T12:57:29.220Z,33.03
2023-04-19T12:59:59.271Z,33.46
2023-04-19T13:02:34.267Z,34.04
2023-04-19T13:05:05.553Z,34.51
2023-04-19T13:07:34.820Z,34.62
2023-04-19T13:10:04.633Z,34.69
2023-04-19T13:12:37.080Z,35.12
2023-04-19T13:15:08.119Z,34.73
2023-04-19T13:17:38.493Z,34.78
2023-04-19T13:20:09.856Z,35.08
2023-04-19T13:22:40.149Z,35.15
2023-04-19T13:25:10.140Z,35.40
2023-04-19T13:27:39.660Z,35.50
2023-04-19T13:30:10.846Z,36.11
2023-04-19T13:32:40.814Z,36.66
2023-04-19T13:35:10.632Z,36.55
2023-04-19T13:37:41.016Z,36.50
2023-04-19T13:40:18.585Z,36.74
2023-04-19T13:42:50.430Z,36.95
2023-04-19T13:45:19.991Z,37.41
2023-04-19T13:47:49.962Z,37.65
2023-04-19T13:50:18.992Z,37.83
2023-04-19T13:52:48.458Z,38.61
2023-04-19T13:55:18.969Z,39.95
2023-04-19T13:57:48.575Z,41.14
2023-04-19T14:00:19.572Z,42.10
2023-04-19T14:02:52.094Z,42.68
2023-04-19T14:05:22.378Z,43.10
2023-04-19T14:07:53.154Z,44.12
2023-04-19T14:10:22.195Z,44.59
2023-04-19T14:12:53.462Z,45.48
2023-04-19T14:15:24.388Z,45.95
2023-04-19T14:18:05.517Z,46.57
2023-04-19T14:20:34.883Z,47.28
2023-04-19T14:23:04.198Z,47.41
2023-04-19T14:25:34.483Z,47.64
2023-04-19T14:28:04.369Z,48.08
2023-04-19T14:30:34.152Z,47.67
2023-04-19T14:33:03.244Z,47.55
2023-04-19T14:35:33.171Z,47.93
2023-04-19T14:38:03.484Z,47.97
2023-04-19T14:40:32.653Z,47.91
2023-04-19T14:43:01.753Z,48.21
2023-04-19T14:45:31.896Z,48.93
2023-04-19T14:48:01.212Z,48.85
2023-04-19T14:50:31.251Z,49.09
2023-04-19T14:53:00.971Z,49.28
2023-04-19T14:55:30.695Z,49.65
2023-04-19T14:57:59.660Z,50.00
2023-04-19T15:00:29.149Z,50.28
2023-04-19T15:02:58.418Z,50.35
2023-04-19T15:05:27.927Z,50.82
2023-04-19T15:07:58.059Z,51.09
2023-04-19T15:10:28.177Z,51.04
2023-04-19T15:12:58.482Z,51.38
2023-04-19T15:15:28.622Z,51.48
2023-04-19T15:17:58.178Z,51.76
2023-04-19T15:20:27.680Z,51.96
2023-04-19T15:22:57.340Z,51.80
2023-04-19T15:25:26.327Z,52.23
2023-04-19T15:27:56.039Z,52.17
2023-04-19T15:30:25.503Z,52.45
2023-04-19T15:32:55.120Z,52.46
2023-04-19T15:35:24.623Z,52.73
2023-04-19T15:37:53.752Z,52.87
2023-04-19T15:40:24.895Z,52.89
2023-04-19T15:42:53.774Z,53.03
2023-04-19T15:45:23.373Z,53.14
2023-04-19T15:47:52.408Z,53.48
2023-04-19T15:50:22.591Z,53.68
2023-04-19T15:52:51.872Z,53.70
2023-04-19T15:55:21.033Z,54.16
2023-04-19T15:57:50.427Z,54.08
2023-04-19T16:00:21.441Z,54.22
2023-04-19T16:02:51.071Z,54.36
2023-04-19T16:05:20.840Z,54.66
2023-04-19T16:08:03.958Z,54.87
2023-04-19T16:10:33.688Z,54.73
2023-04-19T16:13:06.423Z,55.08
2023-04-19T16:15:36.978Z,55.29
2023-04-19T16:18:07.218Z,55.51
2023-04-19T16:20:38.335Z,55.52
2023-04-19T16:23:07.760Z,55.77
2023-04-19T16:25:38.134Z,55.81
2023-04-19T16:28:07.096Z,56.15
2023-04-19T16:30:37.360Z,56.02
2023-04-19T16:33:07.724Z,56.14
2023-04-19T16:35:37.605Z,56.49
2023-04-19T16:38:07.641Z,56.64
2023-04-19T16:40:37.718Z,56.62
2023-04-19T16:43:06.719Z,56.45
2023-04-19T16:45:37.133Z,56.95
2023-04-19T16:48:06.792Z,56.94
2023-04-19T16:50:36.486Z,56.87
2023-04-19T16:53:06.167Z,57.26
2023-04-19T16:55:37.026Z,57.55
2023-04-19T16:58:06.811Z,57.64
2023-04-19T17:00:37.216Z,57.27
2023-04-19T17:03:06.313Z,57.52
2023-04-19T17:05:36.166Z,57.53
2023-04-19T17:08:07.277Z,57.75
2023-04-19T17:10:37.359Z,57.79
2023-04-19T17:13:06.304Z,57.70
2023-04-19T17:15:37.785Z,57.87
2023-04-19T17:18:07.535Z,57.97
2023-04-19T17:20:41.022Z,58.16
2023-04-19T17:23:10.958Z,58.33
2023-04-19T17:25:41.370Z,58.33
2023-04-19T17:28:10.961Z,58.42
2023-04-19T17:30:40.734Z,58.54
2023-04-19T17:33:10.560Z,58.32
2023-04-19T17:35:40.496Z,58.36
2023-04-19T17:38:09.987Z,58.20
2023-04-19T17:40:40.152Z,58.41
2023-04-19T17:43:10.935Z,58.47
2023-04-19T17:45:40.791Z,58.60
2023-04-19T17:48:10.642Z,58.76
2023-04-19T17:50:40.650Z,58.75
2023-04-19T17:53:09.664Z,58.73
2023-04-19T17:55:39.108Z,58.67
2023-04-19T17:58:08.544Z,58.91
2023-04-19T18:00:38.194Z,58.92
2023-04-19T18:03:11.172Z,59.72
2023-04-19T18:05:41.380Z,59.50
2023-04-19T18:08:10.901Z,60.90
2023-04-19T18:10:40.212Z,61.56
2023-04-19T18:13:09.410Z,62.15
2023-04-19T18:15:38.679Z,62.19
2023-04-19T18:18:08.473Z,61.89
2023-04-19T18:20:38.827Z,61.85
2023-04-19T18:23:08.337Z,62.37
2023-04-19T18:25:40.126Z,62.28
2023-04-19T18:28:11.177Z,62.06
2023-04-19T18:30:40.332Z,62.51
2023-04-19T18:33:09.958Z,63.15
2023-04-19T18:35:41.491Z,62.68
2023-04-19T18:38:10.988Z,62.38
2023-04-19T18:40:41.364Z,62.43
2023-04-19T18:43:11.355Z,62.08
2023-04-19T18:45:41.051Z,62.96
2023-04-19T18:48:10.585Z,62.87
2023-04-19T18:50:40.656Z,63.47
2023-04-19T18:53:09.503Z,62.58
2023-04-19T18:55:39.442Z,63.08
2023-04-19T18:58:09.183Z,62.94
2023-04-19T19:00:38.623Z,62.68
2023-04-19T19:03:32.130Z,62.85
2023-04-19T19:06:00.107Z,62.91
2023-04-19T19:08:29.728Z,62.55
2023-04-19T19:13:36.400Z,62.48
2023-04-19T19:16:06.513Z,62.32
2023-04-19T19:18:36.478Z,62.43
2023-04-19T19:21:07.866Z,62.37
2023-04-19T19:23:42.224Z,62.25
2023-04-19T19:26:13.564Z,62.45
2023-04-19T19:28:43.641Z,62.29
2023-04-19T19:31:13.230Z,62.22
2023-04-19T19:33:49.969Z,62.46
2023-04-19T19:36:22.832Z,62.68
2023-04-19T19:38:51.936Z,62.79
2023-04-19T19:43:52.847Z,63.04
2023-04-19T19:46:23.009Z,63.02
2023-04-19T19:48:53.961Z,62.92
2023-04-19T19:51:52.020Z,63.09
2023-04-19T19:54:12.905Z,62.92
2023-04-19T19:57:11.675Z,63.31
2023-04-19T19:59:34.518Z,63.52
2023-04-19T20:02:05.215Z,63.37
2023-04-19T20:04:39.401Z,63.37
2023-04-19T20:10:02.329Z,63.77
2023-04-19T20:12:32.301Z,63.57
2023-04-19T20:15:02.802Z,63.61
2023-04-19T20:17:32.831Z,63.39
2023-04-19T20:20:06.042Z,64.19
2023-04-19T20:22:36.509Z,65.08
2023-04-19T20:25:06.840Z,64.86
2023-04-19T20:27:38.573Z,65.69
2023-04-19T20:30:09.564Z,65.74
2023-04-19T20:32:43.140Z,65.59
2023-04-19T20:35:13.182Z,65.65
2023-04-19T20:37:42.662Z,65.20
2023-04-19T20:40:15.552Z,65.85
2023-04-19T20:42:45.158Z,65.64
2023-04-19T20:45:15.017Z,66.01
2023-04-19T20:47:44.656Z,66.02
2023-04-19T20:50:15.119Z,65.87
2023-04-19T20:52:44.888Z,65.53
2023-04-19T20:55:17.092Z,65.55
2023-04-19T20:57:46.731Z,65.16
2023-04-19T21:00:17.116Z,65.64
2023-04-19T21:02:47.205Z,65.61
2023-04-19T21:05:16.950Z,65.92
2023-04-19T21:07:46.623Z,66.60
2023-04-19T21:10:18.244Z,66.60
2023-04-19T21:12:48.435Z,65.74
2023-04-19T21:15:18.474Z,65.91
2023-04-19T21:17:47.709Z,66.04
2023-04-19T21:20:18.757Z,65.91
2023-04-19T21:22:49.312Z,66.55
2023-04-19T21:25:19.326Z,67.17
2023-04-19T21:27:48.658Z,66.74
2023-04-19T21:30:19.466Z,67.40
2023-04-19T21:32:50.903Z,66.70
2023-04-19T21:35:20.848Z,67.75
2023-04-19T21:37:50.802Z,68.60
2023-04-19T21:40:21.029Z,67.88
2023-04-19T21:42:50.453Z,67.88
2023-04-19T21:45:20.060Z,68.18
2023-04-19T21:47:49.486Z,68.99
2023-04-19T21:50:19.555Z,70.01
2023-04-19T21:52:48.901Z,68.87
2023-04-19T21:55:18.908Z,69.25
2023-04-19T21:57:48.366Z,69.33
2023-04-19T22:00:18.721Z,71.12
2023-04-19T22:02:48.844Z,70.54
2023-04-19T22:05:18.705Z,70.39
2023-04-19T22:07:49.710Z,71.05
2023-04-19T22:10:19.229Z,70.35
2023-04-19T22:12:58.852Z,70.60
2023-04-19T22:15:29.927Z,70.94
2023-04-19T22:17:59.009Z,70.61
2023-04-19T22:20:29.447Z,70.74
2023-04-19T22:22:59.213Z,70.74
2023-04-19T22:25:29.517Z,70.77
2023-04-19T22:27:59.273Z,70.63
2023-04-19T22:30:29.044Z,70.83
2023-04-19T22:32:58.558Z,71.72
2023-04-19T22:35:28.393Z,71.90
2023-04-19T22:37:57.396Z,71.18
2023-04-19T22:40:32.684Z,71.68
2023-04-19T22:43:03.137Z,71.93
2023-04-19T22:45:32.652Z,71.93
2023-04-19T22:48:01.773Z,71.66
2023-04-19T22:50:31.629Z,71.12
2023-04-19T22:53:01.750Z,71.25
2023-04-19T22:55:31.169Z,72.66
2023-04-19T22:58:00.740Z,73.10
2023-04-19T23:00:31.684Z,73.17
2023-04-19T23:03:02.055Z,72.93
2023-04-19T23:05:32.269Z,72.44
2023-04-19T23:08:04.701Z,72.41
2023-04-19T23:10:38.602Z,71.69
2023-04-19T23:13:10.742Z,72.30
2023-04-19T23:15:41.303Z,72.67
2023-04-19T23:18:12.012Z,73.58
2023-04-19T23:20:42.088Z,73.35
2023-04-19T23:23:12.304Z,73.23
2023-04-19T23:25:42.009Z,73.34
2023-04-19T23:28:12.707Z,73.30
2023-04-19T23:30:42.173Z,73.52
2023-04-19T23:33:11.666Z,74.13
2023-04-19T23:35:41.314Z,74.27
2023-04-19T23:38:11.203Z,74.40
2023-04-19T23:40:41.057Z,74.09
2023-04-19T23:43:10.795Z,74.55
2023-04-19T23:45:40.424Z,73.66
2023-04-19T23:48:10.366Z,73.82
2023-04-19T23:50:40.604Z,73.64
2023-04-19T23:53:09.865Z,73.81
2023-04-19T23:55:40.161Z,74.30
2023-04-19T23:58:09.411Z,74.32
